createdAt,value
2016-08-13T04:00:53.058Z,57.89
2016-08-13T04:01:18.705Z,57.69
2016-08-13T04:02:21.886Z,57.89
2016-08-13T04:03:30.180Z,57.89
2016-08-13T04:04:28.264Z,57.79
2016-08-13T04:04:53.834Z,57.69
2016-08-13T04:05:19.398Z,57.69
2016-08-13T04:05:44.947Z,57.69
2016-08-13T04:06:10.507Z,57.69
2016-08-13T04:06:36.255Z,57.89
2016-08-13T04:07:01.831Z,57.89
2016-08-13T04:07:27.390Z,57.79
2016-08-13T04:07:52.945Z,57.89
2016-08-13T04:08:18.494Z,57.89
2016-08-13T04:08:44.041Z,57.89
2016-08-13T04:09:09.600Z,57.98
2016-08-13T04:09:35.162Z,57.89
2016-08-13T04:10:00.712Z,57.6
2016-08-13T04:10:26.271Z,57.89
2016-08-13T04:10:51.927Z,57.79
2016-08-13T04:11:17.466Z,57.79
2016-08-13T04:11:43.066Z,57.79
2016-08-13T04:12:08.739Z,57.89
2016-08-13T04:12:34.278Z,57.69
2016-08-13T04:12:59.860Z,57.89
2016-08-13T04:13:25.543Z,57.89
2016-08-13T04:13:51.091Z,57.69
2016-08-13T04:14:16.817Z,57.79
2016-08-13T04:14:42.436Z,57.79
2016-08-13T04:15:07.966Z,57.79
2016-08-13T04:15:33.528Z,57.89
2016-08-13T04:15:59.126Z,57.89
2016-08-13T04:16:24.732Z,57.98
2016-08-13T04:16:50.285Z,57.5
2016-08-13T04:17:15.851Z,57.79
2016-08-13T04:17:41.406Z,58.08
2016-08-13T04:18:06.962Z,57.69
2016-08-13T04:18:32.520Z,57.79
2016-08-13T04:18:58.075Z,57.69
2016-08-13T04:19:23.625Z,57.89
2016-08-13T04:19:49.200Z,57.5
2016-08-13T04:20:14.757Z,58.08
2016-08-13T04:20:40.318Z,57.69
2016-08-13T04:21:05.860Z,57.89
2016-08-13T04:21:31.419Z,57.98
2016-08-13T04:21:56.974Z,57.79
2016-08-13T04:22:22.726Z,57.89
2016-08-13T04:22:48.281Z,57.89
2016-08-13T04:23:13.844Z,57.79
2016-08-13T04:23:39.402Z,58.08
2016-08-13T04:24:04.965Z,57.89
2016-08-13T04:24:30.532Z,57.79
2016-08-13T04:24:56.113Z,57.98
2016-08-13T04:25:21.673Z,58.08
2016-08-13T04:25:47.280Z,57.79
2016-08-13T04:26:12.832Z,57.69
2016-08-13T04:26:38.388Z,57.79
2016-08-13T04:27:03.956Z,57.6
2016-08-13T04:27:29.586Z,57.89
2016-08-13T04:27:55.195Z,57.5
2016-08-13T04:28:20.752Z,58.08
2016-08-13T04:28:46.317Z,57.98
2016-08-13T04:29:11.882Z,57.69
2016-08-13T04:29:37.460Z,57.89
2016-08-13T04:30:02.993Z,57.98
2016-08-13T04:30:28.546Z,57.89
2016-08-13T04:30:54.076Z,57.89
2016-08-13T04:31:19.626Z,57.89
2016-08-13T04:31:45.196Z,57.89
2016-08-13T04:32:10.732Z,57.69
2016-08-13T04:32:36.270Z,57.79
2016-08-13T04:33:01.816Z,57.89
2016-08-13T04:33:27.364Z,57.69
2016-08-13T04:33:52.894Z,57.98
2016-08-13T04:34:18.556Z,57.98
2016-08-13T04:34:44.110Z,58.08
2016-08-13T04:35:09.650Z,57.89
2016-08-13T04:35:35.212Z,57.89
2016-08-13T04:38:10.918Z,57.98
2016-08-13T04:38:36.555Z,57.89
2016-08-13T04:39:02.133Z,57.89
2016-08-13T04:39:27.692Z,57.98
2016-08-13T04:39:53.303Z,57.69
2016-08-13T04:40:18.898Z,57.79
2016-08-13T04:40:44.461Z,57.69
2016-08-13T04:41:10.021Z,58.08
2016-08-13T04:41:35.722Z,58.08
2016-08-13T04:42:01.312Z,58.27
2016-08-13T04:42:26.873Z,58.27
2016-08-13T04:42:52.431Z,58.08
2016-08-13T04:43:17.991Z,57.89
2016-08-13T04:43:43.532Z,58.47
2016-08-13T04:44:09.096Z,57.98
2016-08-13T04:44:34.624Z,58.08
2016-08-13T04:45:00.167Z,58.27
2016-08-13T04:45:25.701Z,58.17
2016-08-13T04:45:51.277Z,58.47
2016-08-13T04:46:16.824Z,58.47
2016-08-13T04:46:42.360Z,57.89
2016-08-13T04:47:07.897Z,57.89
2016-08-13T04:47:33.450Z,57.98
2016-08-13T04:47:59.043Z,58.17
2016-08-13T04:48:24.582Z,58.27
2016-08-13T04:48:50.132Z,58.08
2016-08-13T04:49:15.689Z,58.17
2016-08-13T04:49:41.238Z,58.08
2016-08-13T04:50:06.778Z,58.27
2016-08-13T04:50:32.322Z,57.89
2016-08-13T04:50:57.956Z,58.08
2016-08-13T04:51:23.532Z,57.89
2016-08-13T04:51:49.086Z,57.89
2016-08-13T04:52:14.652Z,58.27
2016-08-13T04:52:40.223Z,58.27
2016-08-13T04:53:05.773Z,57.98
2016-08-13T04:53:31.328Z,57.89
2016-08-13T04:53:56.903Z,57.89
2016-08-13T04:54:22.513Z,58.47
2016-08-13T04:54:48.062Z,57.98
2016-08-13T04:55:13.594Z,57.79
2016-08-13T04:55:39.128Z,58.08
2016-08-13T04:57:30.491Z,57.89
2016-08-13T04:57:56.048Z,58.47
2016-08-13T04:58:21.600Z,57.89
2016-08-13T04:58:47.152Z,58.17
2016-08-13T04:59:12.756Z,57.98
2016-08-13T04:59:38.322Z,58.37
2016-08-13T05:00:03.895Z,58.27
2016-08-13T05:00:29.447Z,57.79
2016-08-13T05:00:55.086Z,57.69
2016-08-13T05:01:20.654Z,57.79
2016-08-13T05:02:29.015Z,57.89
2016-08-13T05:02:54.606Z,58.08
2016-08-13T05:03:20.156Z,57.89
2016-08-13T05:03:45.770Z,57.89
2016-08-13T05:04:11.334Z,57.89
2016-08-13T05:04:36.945Z,57.89
2016-08-13T05:05:02.508Z,58.08
2016-08-13T05:05:28.226Z,57.79
2016-08-13T05:05:53.853Z,58.27
2016-08-13T05:06:19.428Z,58.27
2016-08-13T05:06:45.035Z,57.89
2016-08-13T05:07:10.625Z,57.98
2016-08-13T05:07:36.204Z,57.89
2016-08-13T05:08:01.757Z,57.79
2016-08-13T05:08:27.392Z,58.08
2016-08-13T05:08:52.931Z,58.08
2016-08-13T05:09:18.496Z,58.17
2016-08-13T05:10:31.894Z,58.08
2016-08-13T05:10:57.655Z,58.08
2016-08-13T05:11:23.233Z,58.08
2016-08-13T05:11:48.887Z,57.98
2016-08-13T05:12:14.455Z,58.27
2016-08-13T05:12:40.030Z,58.27
2016-08-13T05:13:05.589Z,58.47
2016-08-13T05:13:31.232Z,58.75
2016-08-13T05:13:56.811Z,58.56
2016-08-13T05:14:22.383Z,58.17
2016-08-13T05:14:47.945Z,58.65
2016-08-13T05:15:13.526Z,58.17
2016-08-13T05:15:39.106Z,58.75
2016-08-13T05:16:04.685Z,58.65
2016-08-13T05:16:30.264Z,58.85
2016-08-13T05:16:55.825Z,58.65
2016-08-13T05:17:21.425Z,58.78
2016-08-13T05:17:47.001Z,58.17
2016-08-13T05:18:12.683Z,58.27
2016-08-13T05:18:38.220Z,58.78
2016-08-13T05:19:03.780Z,58.56
2016-08-13T05:19:29.346Z,58.11
2016-08-13T05:19:54.927Z,58.27
2016-08-13T05:20:20.597Z,58.56
2016-08-13T05:20:46.270Z,58.69
2016-08-13T05:21:11.841Z,58.65
2016-08-13T05:21:37.413Z,58.47
2016-08-13T05:22:02.968Z,58.69
2016-08-13T05:22:28.528Z,58.56
2016-08-13T05:22:54.111Z,58.65
2016-08-13T05:23:19.669Z,58.49
2016-08-13T05:23:45.236Z,58.65
2016-08-13T05:24:10.807Z,58.65
2016-08-13T05:24:36.373Z,58.65
2016-08-13T05:25:02.060Z,58.75
2016-08-13T05:25:27.611Z,58.78
2016-08-13T05:25:53.154Z,58.78
2016-08-13T05:26:18.725Z,58.75
2016-08-13T05:26:44.347Z,58.75
2016-08-13T05:27:09.905Z,58.3
2016-08-13T05:27:35.466Z,58.75
2016-08-13T05:28:01.041Z,58.75
2016-08-13T05:28:26.589Z,58.2
2016-08-13T05:28:52.157Z,58.65
2016-08-13T05:29:17.700Z,58.59
2016-08-13T05:29:43.279Z,58.65
2016-08-13T05:30:08.882Z,58.37
2016-08-13T05:30:34.536Z,58.37
2016-08-13T05:31:00.139Z,58.85
2016-08-13T05:31:25.729Z,58.75
2016-08-13T05:31:51.342Z,58.65
2016-08-13T05:32:16.912Z,58.37
2016-08-13T05:32:42.554Z,58.59
2016-08-13T05:33:08.107Z,58.27
2016-08-13T05:33:33.656Z,58.37
2016-08-13T05:33:59.233Z,58.3
2016-08-13T05:34:24.809Z,58.65
2016-08-13T05:34:50.376Z,58.95
2016-08-13T05:35:15.964Z,58.85
2016-08-13T05:35:41.622Z,58.59
2016-08-13T05:36:07.204Z,58.65
2016-08-13T05:36:32.784Z,58.88
2016-08-13T05:36:58.335Z,58.37
2016-08-13T05:37:23.911Z,58.65
2016-08-13T05:37:49.510Z,58.78
2016-08-13T05:38:15.142Z,59.04
2016-08-13T05:38:40.705Z,58.65
2016-08-13T05:39:06.284Z,58.47
2016-08-13T05:39:31.865Z,58.47
2016-08-13T05:39:57.543Z,58.4
2016-08-13T05:40:50.579Z,58.47
2016-08-13T05:41:16.398Z,58.56
2016-08-13T05:41:41.976Z,58.47
2016-08-13T05:42:07.546Z,58.69
2016-08-13T05:42:33.106Z,58.27
2016-08-13T05:42:58.676Z,58.56
2016-08-13T05:43:24.245Z,58.78
2016-08-13T05:43:49.812Z,58.65
2016-08-13T05:44:15.496Z,58.27
2016-08-13T05:44:41.068Z,58.47
2016-08-13T05:45:06.641Z,58.47
2016-08-13T05:45:32.203Z,58.47
2016-08-13T05:45:57.853Z,58.37
2016-08-13T05:46:23.424Z,58.49
2016-08-13T05:46:49.059Z,58.27
2016-08-13T05:47:42.123Z,58.75
2016-08-13T05:48:07.892Z,58.59
2016-08-13T05:48:33.468Z,58.65
2016-08-13T05:48:59.051Z,58.65
2016-08-13T05:49:24.617Z,58.49
2016-08-13T05:49:50.289Z,58.65
2016-08-13T05:50:15.861Z,58.56
2016-08-13T05:50:41.420Z,58.27
2016-08-13T05:51:06.997Z,58.56
2016-08-13T05:51:32.541Z,58.47
2016-08-13T05:51:58.287Z,58.65
2016-08-13T05:52:23.849Z,58.37
2016-08-13T05:52:49.412Z,58.27
2016-08-13T05:53:15.011Z,59.04
2016-08-13T05:53:40.566Z,58.47
2016-08-13T05:54:06.170Z,58.47
2016-08-13T05:54:31.753Z,58.37
2016-08-13T05:54:57.324Z,58.56
2016-08-13T05:55:23.103Z,58.37
2016-08-13T05:55:48.708Z,58.3
2016-08-13T05:56:14.277Z,58.3
2016-08-13T05:56:39.854Z,58.27
2016-08-13T05:57:05.496Z,58.56
2016-08-13T05:57:31.081Z,58.75
2016-08-13T05:57:56.643Z,58.65
2016-08-13T05:58:22.302Z,59.23
2016-08-13T05:58:47.881Z,59.23
2016-08-13T05:59:13.449Z,58.95
2016-08-13T05:59:39.014Z,59.04
2016-08-13T06:00:04.586Z,59.04
2016-08-13T06:00:30.155Z,59.23
2016-08-13T06:01:28.235Z,59.04
2016-08-13T06:01:53.803Z,58.95
2016-08-13T06:02:19.366Z,58.85
2016-08-13T06:02:44.974Z,59.14
2016-08-13T06:03:10.620Z,59.33
2016-08-13T06:03:36.309Z,59.23
2016-08-13T06:04:01.944Z,58.4
2016-08-13T06:04:27.513Z,58.75
2016-08-13T06:04:53.216Z,58.47
2016-08-13T06:05:18.798Z,58.75
2016-08-13T06:05:44.375Z,59.04
2016-08-13T06:06:09.938Z,59.14
2016-08-13T06:06:35.605Z,59.33
2016-08-13T06:07:01.164Z,59.43
2016-08-13T06:07:26.794Z,59.23
2016-08-13T06:07:52.394Z,59.52
2016-08-13T06:08:17.963Z,59.62
2016-08-13T06:08:43.579Z,59.14
2016-08-13T06:09:09.165Z,59.43
2016-08-13T06:09:34.781Z,59.62
2016-08-13T06:10:00.368Z,59.04
2016-08-13T06:10:26.040Z,58.75
2016-08-13T06:10:51.620Z,58.47
2016-08-13T06:11:17.175Z,59.33
2016-08-13T06:11:42.726Z,58.95
2016-08-13T06:12:08.376Z,59.27
2016-08-13T06:12:33.976Z,59.33
2016-08-13T06:12:59.539Z,59.33
2016-08-13T06:13:25.501Z,59.43
2016-08-13T06:13:51.063Z,59.62
2016-08-13T06:14:16.632Z,60.2
2016-08-13T06:15:24.978Z,60.3
2016-08-13T06:16:28.269Z,59.62
2016-08-13T06:16:53.825Z,59.62
2016-08-13T06:17:19.675Z,59.91
2016-08-13T06:17:44.966Z,59.62
2016-08-13T06:18:10.607Z,59.43
2016-08-13T06:18:36.166Z,59.23
2016-08-13T06:19:01.728Z,59.33
2016-08-13T06:19:27.458Z,59.33
2016-08-13T06:19:53.010Z,59.43
2016-08-13T06:20:18.571Z,59.43
2016-08-13T06:20:44.140Z,59.81
2016-08-13T06:21:09.757Z,59.52
2016-08-13T06:21:35.319Z,59.52
2016-08-13T06:22:00.882Z,59.43
2016-08-13T06:22:26.446Z,59.52
2016-08-13T06:22:52.411Z,59.62
2016-08-13T06:23:18.000Z,60.2
2016-08-13T06:23:43.577Z,60.39
2016-08-13T06:24:09.148Z,60.3
2016-08-13T06:24:34.699Z,59.72
2016-08-13T06:25:00.324Z,59.23
2016-08-13T06:25:25.895Z,59.33
2016-08-13T06:25:51.528Z,59.52
2016-08-13T06:26:17.158Z,59.52
2016-08-13T06:26:42.732Z,59.33
2016-08-13T06:27:08.277Z,59.43
2016-08-13T06:27:33.866Z,59.52
2016-08-13T06:27:59.420Z,59.62
2016-08-13T06:28:25.072Z,59.33
2016-08-13T06:28:50.622Z,59.43
2016-08-13T06:29:16.314Z,59.33
2016-08-13T06:29:41.873Z,59.33
2016-08-13T06:30:07.439Z,59.65
2016-08-13T06:30:32.996Z,59.55
2016-08-13T06:30:58.591Z,59.81
2016-08-13T06:31:24.170Z,59.62
2016-08-13T06:31:49.723Z,59.84
2016-08-13T06:32:15.325Z,59.43
2016-08-13T06:32:40.903Z,59.81
2016-08-13T06:33:06.463Z,59.62
2016-08-13T06:33:32.055Z,59.91
2016-08-13T06:33:57.624Z,60
2016-08-13T06:34:23.337Z,59.91
2016-08-13T06:34:48.896Z,59.62
2016-08-13T06:35:14.457Z,60.23
2016-08-13T06:35:40.017Z,60
2016-08-13T06:36:05.585Z,59.91
2016-08-13T06:36:31.332Z,60.32
2016-08-13T06:36:56.847Z,59.55
2016-08-13T06:37:22.526Z,60.32
2016-08-13T06:37:48.080Z,60
2016-08-13T06:38:13.730Z,59.81
2016-08-13T06:38:39.387Z,59.81
2016-08-13T06:39:04.956Z,59.72
2016-08-13T06:39:30.531Z,59.55
2016-08-13T06:39:56.117Z,59.84
2016-08-13T06:40:21.702Z,59.84
2016-08-13T06:40:47.265Z,59.84
2016-08-13T06:41:12.842Z,59.62
2016-08-13T06:41:38.518Z,59.91
2016-08-13T06:42:04.079Z,60.03
2016-08-13T06:42:29.658Z,59.62
2016-08-13T06:42:55.355Z,59.84
2016-08-13T06:43:21.161Z,59.65
2016-08-13T06:43:46.672Z,59.84
2016-08-13T06:44:12.208Z,59.91
2016-08-13T06:44:37.789Z,59.94
2016-08-13T06:45:03.340Z,59.72
2016-08-13T06:45:29.596Z,59.72
2016-08-13T06:45:55.185Z,59.55
2016-08-13T06:46:20.749Z,59.65
2016-08-13T06:46:46.413Z,59.84
2016-08-13T06:47:12.006Z,59.45
2016-08-13T06:47:37.681Z,59.43
2016-08-13T06:48:03.246Z,59.84
2016-08-13T06:48:28.780Z,59.55
2016-08-13T06:48:54.322Z,59.23
2016-08-13T06:49:19.875Z,59.27
2016-08-13T06:50:28.205Z,59.27
2016-08-13T06:50:53.780Z,59.52
2016-08-13T06:51:19.347Z,59.55
2016-08-13T06:51:44.925Z,59.43
2016-08-13T06:52:10.514Z,59.14
2016-08-13T06:52:36.087Z,59.55
2016-08-13T06:53:01.792Z,59.65
2016-08-13T06:53:27.349Z,59.75
2016-08-13T06:53:52.904Z,59.36
2016-08-13T06:54:18.487Z,59.45
2016-08-13T06:54:44.196Z,59.52
2016-08-13T06:55:09.816Z,59.84
2016-08-13T06:55:35.366Z,59.72
2016-08-13T06:56:01.027Z,60.23
2016-08-13T06:56:26.885Z,60.32
2016-08-13T06:56:52.417Z,59.84
2016-08-13T06:57:18.010Z,60.13
2016-08-13T06:57:43.559Z,60.52
2016-08-13T06:58:09.130Z,60.13
2016-08-13T06:58:34.701Z,60.42
2016-08-13T06:59:00.287Z,60.77
2016-08-13T06:59:25.960Z,61
2016-08-13T07:00:29.341Z,60.03
2016-08-13T07:00:54.945Z,60.61
2016-08-13T07:01:20.496Z,60.42
2016-08-13T07:01:46.060Z,60.3
2016-08-13T07:02:11.644Z,60.2
2016-08-13T07:02:37.255Z,60.71
2016-08-13T07:03:02.835Z,60.42
2016-08-13T07:03:28.399Z,60.71
2016-08-13T07:03:53.965Z,60.23
2016-08-13T07:04:19.528Z,60.42
2016-08-13T07:04:45.080Z,60.61
2016-08-13T07:05:10.655Z,60.61
2016-08-13T07:05:36.218Z,60.61
2016-08-13T07:06:01.880Z,60.13
2016-08-13T07:06:27.406Z,60.23
2016-08-13T07:06:52.970Z,60.61
2016-08-13T07:07:18.597Z,60.42
2016-08-13T07:07:44.276Z,60.13
2016-08-13T07:08:09.927Z,60.23
2016-08-13T07:08:35.420Z,60.9
2016-08-13T07:09:01.190Z,60.9
2016-08-13T07:09:26.765Z,60.8
2016-08-13T07:09:52.360Z,60.71
2016-08-13T07:10:17.948Z,60.71
2016-08-13T07:10:43.492Z,61
2016-08-13T07:11:09.053Z,60.71
2016-08-13T07:11:34.664Z,60.9
2016-08-13T07:12:32.930Z,60.9
2016-08-13T07:12:58.496Z,60.61
2016-08-13T07:13:24.066Z,60.71
2016-08-13T07:13:49.619Z,61.19
2016-08-13T07:14:15.289Z,60.61
2016-08-13T07:14:40.857Z,60.9
2016-08-13T07:15:06.402Z,60.52
2016-08-13T07:15:32.043Z,60.8
2016-08-13T07:15:57.861Z,60.42
2016-08-13T07:16:23.323Z,60.9
2016-08-13T07:16:48.948Z,60.8
2016-08-13T07:17:14.513Z,60.52
2016-08-13T07:17:40.062Z,60.71
2016-08-13T07:18:05.620Z,60.61
2016-08-13T07:18:31.240Z,60.9
2016-08-13T07:18:56.784Z,61
2016-08-13T07:19:22.343Z,60.61
2016-08-13T07:19:47.898Z,60.9
2016-08-13T07:20:13.546Z,60.71
2016-08-13T07:20:39.108Z,60.8
2016-08-13T07:21:04.667Z,60.8
2016-08-13T07:21:30.216Z,60.8
2016-08-13T07:21:55.776Z,60.9
2016-08-13T07:22:21.415Z,60.9
2016-08-13T07:22:47.234Z,60.52
2016-08-13T07:23:12.805Z,60.9
2016-08-13T07:23:38.373Z,61.38
2016-08-13T07:24:04.034Z,60.8
2016-08-13T07:24:29.623Z,60.9
2016-08-13T07:24:55.155Z,60.9
2016-08-13T07:25:20.719Z,60.61
2016-08-13T07:25:46.283Z,60.71
2016-08-13T07:26:11.856Z,60.8
2016-08-13T07:26:37.493Z,61.19
2016-08-13T07:27:03.070Z,60.61
2016-08-13T07:27:28.677Z,61
2016-08-13T07:27:54.303Z,60.9
2016-08-13T07:28:19.808Z,60.8
2016-08-13T07:28:45.377Z,60.61
2016-08-13T07:29:10.958Z,60.71
2016-08-13T07:29:36.527Z,60.42
2016-08-13T07:30:02.164Z,61.58
2016-08-13T07:30:27.746Z,61.38
2016-08-13T07:30:53.300Z,60.9
2016-08-13T07:31:18.875Z,60.61
2016-08-13T07:31:44.457Z,61
2016-08-13T07:32:10.108Z,60.71
2016-08-13T07:32:35.632Z,60.71
2016-08-13T07:33:01.191Z,61.38
2016-08-13T07:33:26.773Z,60.9
2016-08-13T07:33:52.339Z,60.9
2016-08-13T07:34:17.904Z,61
2016-08-13T07:34:43.565Z,60.9
2016-08-13T07:35:09.176Z,60.8
2016-08-13T07:35:34.877Z,60.9
2016-08-13T07:36:00.485Z,61.48
2016-08-13T07:36:26.054Z,61.1
2016-08-13T07:36:51.658Z,60.71
2016-08-13T07:37:17.227Z,60.71
2016-08-13T07:37:42.788Z,60.8
2016-08-13T07:38:08.370Z,60.52
2016-08-13T07:38:33.938Z,60.9
2016-08-13T07:38:59.561Z,61.48
2016-08-13T07:39:25.148Z,61.19
2016-08-13T07:39:50.786Z,61.1
2016-08-13T07:40:16.357Z,60.9
2016-08-13T07:40:41.983Z,61.19
2016-08-13T07:41:07.551Z,61.19
2016-08-13T07:41:33.124Z,61.29
2016-08-13T07:41:58.690Z,61.38
2016-08-13T07:42:24.380Z,60.9
2016-08-13T07:42:49.837Z,61.1
2016-08-13T07:43:15.431Z,61.48
2016-08-13T07:43:41.058Z,61.19
2016-08-13T07:44:06.900Z,61.19
2016-08-13T07:44:32.613Z,61.29
2016-08-13T07:44:58.277Z,61.48
2016-08-13T07:45:23.946Z,61.29
2016-08-13T07:45:49.522Z,61.19
2016-08-13T07:46:15.104Z,61.29
2016-08-13T07:46:40.734Z,61.29
2016-08-13T07:47:06.313Z,61.19
2016-08-13T07:47:31.853Z,61.19
2016-08-13T07:47:57.416Z,61.1
2016-08-13T07:48:22.996Z,61.1
2016-08-13T07:48:48.567Z,61
2016-08-13T07:49:14.146Z,61.48
2016-08-13T07:49:39.716Z,61.58
2016-08-13T07:50:05.285Z,61.1
2016-08-13T07:50:30.914Z,61.19
2016-08-13T07:50:56.478Z,60.9
2016-08-13T07:51:22.111Z,61.48
2016-08-13T07:51:47.723Z,61.1
2016-08-13T07:52:13.289Z,61.29
2016-08-13T07:52:38.865Z,61.1
2016-08-13T07:53:04.493Z,61.29
2016-08-13T07:53:30.044Z,61.19
2016-08-13T07:53:55.634Z,61.19
2016-08-13T07:54:21.274Z,61.1
2016-08-13T07:54:46.817Z,61.48
2016-08-13T07:55:12.357Z,61.29
2016-08-13T07:55:37.896Z,60.9
2016-08-13T07:56:03.433Z,61.1
2016-08-13T07:56:28.987Z,61.1
2016-08-13T07:56:54.545Z,61
2016-08-13T07:57:20.081Z,61.19
2016-08-13T07:57:45.674Z,61.19
2016-08-13T07:58:11.219Z,61.48
2016-08-13T07:58:36.752Z,61.29
2016-08-13T07:59:02.313Z,61.58
2016-08-13T07:59:27.840Z,61.1
2016-08-13T07:59:53.393Z,61.1
2016-08-13T08:00:18.963Z,61.19
2016-08-13T08:00:44.531Z,61.1
2016-08-13T08:01:10.072Z,61.58
2016-08-13T08:01:35.640Z,61.1
2016-08-13T08:02:01.161Z,61
2016-08-13T08:02:26.715Z,61.38
2016-08-13T08:02:52.329Z,61.58
2016-08-13T08:03:17.879Z,61.19
2016-08-13T08:04:31.352Z,61.87
2016-08-13T08:04:56.926Z,61.68
2016-08-13T08:05:22.459Z,61.77
2016-08-13T08:05:48.027Z,61.68
2016-08-13T08:06:13.573Z,61.19
2016-08-13T08:06:39.157Z,61.1
2016-08-13T08:07:04.721Z,62.15
2016-08-13T08:07:30.315Z,62.06
2016-08-13T08:07:55.866Z,61.68
2016-08-13T08:08:21.578Z,61.87
2016-08-13T08:08:47.141Z,61.1
2016-08-13T08:09:12.702Z,61.96
2016-08-13T08:09:38.264Z,61.58
2016-08-13T08:10:03.814Z,62.06
2016-08-13T08:10:29.386Z,61.68
2016-08-13T08:10:54.957Z,61.68
2016-08-13T08:11:20.523Z,61.87
2016-08-13T08:11:46.169Z,61.68
2016-08-13T08:12:11.776Z,61.77
2016-08-13T08:12:37.331Z,61.87
2016-08-13T08:13:02.932Z,61.87
2016-08-13T08:13:28.474Z,61.77
2016-08-13T08:13:54.054Z,61.87
2016-08-13T08:14:19.626Z,62.15
2016-08-13T08:15:33.142Z,61.77
2016-08-13T08:15:58.687Z,61.77
2016-08-13T08:16:24.252Z,61.87
2016-08-13T08:16:49.916Z,62.06
2016-08-13T08:17:15.480Z,61.77
2016-08-13T08:17:41.061Z,61.58
2016-08-13T08:18:06.619Z,61.58
2016-08-13T08:18:32.300Z,61.96
2016-08-13T08:18:57.747Z,62.06
2016-08-13T08:19:23.335Z,61.87
2016-08-13T08:19:48.868Z,61.96
2016-08-13T08:20:14.468Z,61.68
2016-08-13T08:20:40.001Z,61.68
2016-08-13T08:21:05.572Z,61.68
2016-08-13T08:21:31.131Z,61.77
2016-08-13T08:21:56.705Z,61.77
2016-08-13T08:22:22.260Z,61.77
2016-08-13T08:22:47.860Z,61.58
2016-08-13T08:23:13.417Z,61.48
2016-08-13T08:23:38.983Z,61.87
2016-08-13T08:24:04.578Z,61.68
2016-08-13T08:24:30.148Z,61.77
2016-08-13T08:24:55.669Z,62.06
2016-08-13T08:25:21.227Z,61.87
2016-08-13T08:25:46.771Z,61.87
2016-08-13T08:26:12.328Z,62.15
2016-08-13T08:26:37.883Z,61.77
2016-08-13T08:27:03.718Z,61.68
2016-08-13T08:27:29.285Z,61.48
2016-08-13T08:28:37.653Z,61.87
2016-08-13T08:29:03.228Z,61.68
2016-08-13T08:29:28.793Z,61.87
2016-08-13T08:29:54.359Z,61.87
2016-08-13T08:30:19.929Z,61.29
2016-08-13T08:30:45.508Z,61.58
2016-08-13T08:31:11.063Z,61.29
2016-08-13T08:31:36.631Z,61.1
2016-08-13T08:32:02.229Z,60.9
2016-08-13T08:32:27.802Z,61.29
2016-08-13T08:32:53.526Z,61.19
2016-08-13T08:33:19.130Z,61.1
2016-08-13T08:33:44.710Z,61.29
2016-08-13T08:34:10.275Z,61.48
2016-08-13T08:34:35.831Z,61.29
2016-08-13T08:35:01.598Z,61.48
2016-08-13T08:35:27.156Z,61.48
2016-08-13T08:35:52.757Z,61.29
2016-08-13T08:36:18.328Z,61.1
2016-08-13T08:36:43.941Z,61.29
2016-08-13T08:37:09.506Z,61.48
2016-08-13T08:37:35.166Z,61.48
2016-08-13T08:38:00.740Z,61.1
2016-08-13T08:38:26.321Z,61.48
2016-08-13T08:38:51.994Z,61.38
2016-08-13T08:39:17.571Z,61.38
2016-08-13T08:39:43.133Z,61.19
2016-08-13T08:40:08.705Z,61.19
2016-08-13T08:40:34.327Z,61.38
2016-08-13T08:40:59.975Z,60.8
2016-08-13T08:41:25.555Z,60.9
2016-08-13T08:41:51.184Z,61.38
2016-08-13T08:42:16.768Z,60.8
2016-08-13T08:42:42.348Z,61.1
2016-08-13T08:43:07.895Z,61.58
2016-08-13T08:43:33.628Z,61.48
2016-08-13T08:43:59.208Z,60.52
2016-08-13T08:44:24.767Z,60.8
2016-08-13T08:44:50.322Z,60.42
2016-08-13T08:45:15.866Z,61.19
2016-08-13T08:45:41.422Z,60.42
2016-08-13T08:46:06.972Z,61
2016-08-13T08:46:32.508Z,60.9
2016-08-13T08:46:58.058Z,60.8
2016-08-13T08:47:23.675Z,61
2016-08-13T08:47:49.224Z,61.1
2016-08-13T08:48:14.780Z,60.8
2016-08-13T08:48:40.351Z,60.71
2016-08-13T08:49:05.917Z,61
2016-08-13T08:49:31.477Z,61
2016-08-13T08:49:57.037Z,60.9
2016-08-13T08:50:22.578Z,60.9
2016-08-13T08:50:48.113Z,61.48
2016-08-13T08:51:14.131Z,61.48
2016-08-13T08:51:39.666Z,61.38
2016-08-13T08:52:05.234Z,61.48
2016-08-13T08:52:30.781Z,61.38
2016-08-13T08:52:56.355Z,60.9
2016-08-13T08:53:21.895Z,60.8
2016-08-13T08:53:47.465Z,60.61
2016-08-13T08:54:13.089Z,61
2016-08-13T08:54:38.668Z,61
2016-08-13T08:55:04.354Z,61.29
2016-08-13T08:55:29.916Z,60.9
2016-08-13T08:55:55.464Z,60.71
2016-08-13T08:56:21.010Z,61.29
2016-08-13T08:56:46.649Z,61.48
2016-08-13T08:57:12.189Z,61.38
2016-08-13T08:57:37.742Z,61.38
2016-08-13T08:58:03.282Z,61.38
2016-08-13T08:58:28.899Z,61.19
2016-08-13T08:58:54.491Z,60.9
2016-08-13T08:59:20.054Z,61.38
2016-08-13T08:59:45.591Z,61.19
2016-08-13T09:00:11.156Z,61.48
2016-08-13T09:00:36.879Z,61.48
2016-08-13T09:01:02.438Z,61
2016-08-13T09:01:28.005Z,61
2016-08-13T09:01:53.738Z,60.8
2016-08-13T09:02:19.303Z,61
2016-08-13T09:02:44.820Z,61.48
2016-08-13T09:03:10.391Z,60.61
2016-08-13T09:03:36.438Z,60.61
2016-08-13T09:04:02.039Z,61
2016-08-13T09:04:27.700Z,60.9
2016-08-13T09:04:53.283Z,61
2016-08-13T09:05:18.904Z,60.42
2016-08-13T09:05:44.639Z,61
2016-08-13T09:06:10.426Z,60.42
2016-08-13T09:06:35.987Z,61
2016-08-13T09:07:01.576Z,61
2016-08-13T09:07:27.147Z,61.1
2016-08-13T09:07:52.830Z,60.71
2016-08-13T09:08:18.403Z,60.61
2016-08-13T09:08:43.957Z,60.71
2016-08-13T09:09:09.520Z,60.71
2016-08-13T09:09:35.182Z,60.9
2016-08-13T09:10:00.745Z,60.9
2016-08-13T09:10:26.345Z,60.9
2016-08-13T09:10:51.899Z,60.9
2016-08-13T09:11:17.494Z,60.9
2016-08-13T09:11:43.063Z,60.61
2016-08-13T09:12:08.602Z,61
2016-08-13T09:12:34.206Z,60.61
2016-08-13T09:12:59.771Z,61.1
2016-08-13T09:13:25.332Z,60.8
2016-08-13T09:13:50.905Z,60.8
2016-08-13T09:14:16.476Z,60.61
2016-08-13T09:14:42.141Z,60.9
2016-08-13T09:15:07.697Z,60.8
2016-08-13T09:15:33.282Z,60.71
2016-08-13T09:15:58.926Z,60.71
2016-08-13T09:16:24.476Z,61
2016-08-13T09:16:50.065Z,60.32
2016-08-13T09:17:15.630Z,60.61
2016-08-13T09:17:41.195Z,60.8
2016-08-13T09:18:06.874Z,60.9
2016-08-13T09:18:32.748Z,61.1
2016-08-13T09:18:58.483Z,60.8
2016-08-13T09:19:24.342Z,60.71
2016-08-13T09:19:49.904Z,60.71
2016-08-13T09:20:15.484Z,60.71
2016-08-13T09:20:41.046Z,60.42
2016-08-13T09:21:06.743Z,60.71
2016-08-13T09:21:32.298Z,61.1
2016-08-13T09:21:57.861Z,60.71
2016-08-13T09:22:23.449Z,60.13
2016-08-13T09:22:49.026Z,61
2016-08-13T09:23:14.597Z,60.9
2016-08-13T09:23:40.195Z,60.9
2016-08-13T09:24:05.761Z,60.61
2016-08-13T09:24:31.327Z,61
2016-08-13T09:24:56.886Z,61.19
2016-08-13T09:25:22.460Z,60.42
2016-08-13T09:25:48.071Z,60.9
2016-08-13T09:26:13.656Z,60.9
2016-08-13T09:26:39.224Z,60.71
2016-08-13T09:27:04.795Z,60.61
2016-08-13T09:27:30.345Z,60.71
2016-08-13T09:27:55.913Z,61
2016-08-13T09:28:21.504Z,61
2016-08-13T09:28:47.074Z,61
2016-08-13T09:29:12.638Z,60.71
2016-08-13T09:29:38.196Z,60.61
2016-08-13T09:30:03.903Z,61
2016-08-13T09:30:29.475Z,60.71
2016-08-13T09:30:55.107Z,60.9
2016-08-13T09:31:20.669Z,60.52
2016-08-13T09:31:46.257Z,60.9
2016-08-13T09:32:11.836Z,60.61
2016-08-13T09:32:37.417Z,60.71
2016-08-13T09:33:02.980Z,60.61
2016-08-13T09:33:28.582Z,61.1
2016-08-13T09:33:54.114Z,60.8
2016-08-13T09:34:19.690Z,60.8
2016-08-13T09:34:45.248Z,60.9
2016-08-13T09:35:10.886Z,60.8
2016-08-13T09:35:36.451Z,61.1
2016-08-13T09:36:02.013Z,60.61
2016-08-13T09:36:27.572Z,60.61
2016-08-13T09:36:53.131Z,60.42
2016-08-13T09:37:18.698Z,60.9
2016-08-13T09:37:44.352Z,60.9
2016-08-13T09:38:09.945Z,60.8
2016-08-13T09:38:35.512Z,61
2016-08-13T09:39:01.137Z,60.71
2016-08-13T09:39:26.742Z,60.42
2016-08-13T09:39:52.330Z,60.61
2016-08-13T09:40:17.894Z,60.61
2016-08-13T09:40:43.459Z,61
2016-08-13T09:41:09.080Z,61
2016-08-13T09:41:34.665Z,60.8
2016-08-13T09:42:00.327Z,60.52
2016-08-13T09:42:25.969Z,60.8
2016-08-13T09:43:34.226Z,61.29
2016-08-13T09:43:59.988Z,60.9
2016-08-13T09:44:25.572Z,61
2016-08-13T09:44:51.142Z,61.48
2016-08-13T09:45:16.709Z,61.1
2016-08-13T09:45:42.298Z,61.38
2016-08-13T09:46:07.869Z,61
2016-08-13T09:46:33.443Z,61.1
2016-08-13T09:46:59.006Z,61.38
2016-08-13T09:47:24.769Z,61.29
2016-08-13T09:47:50.320Z,60.8
2016-08-13T09:48:15.905Z,61.48